Time;durP1;ratioP1;P1;durP2;ratioP2;P2;SDS_P1;SDS_P2;PMS_P1;PMS_P2;Temp;Humidity;BMP_temperature;BMP_pressure;BME280_temperature;BME280_humidity;BME280_pressure;Samples;Min_cycle;Max_cycle;Signal;HPM_P1;HPM_P2
2021/12/31 00:01:38;;;;;;;24.45;12.10;;;;;;;9.93;71.16;99039.00;4502951;31;20129;-76
2021/12/31 00:04:04;;;;;;;24.77;12.35;;;;;;;10.04;70.61;99042.84;4503028;31;20092;-77
2021/12/31 00:06:29;;;;;;;25.25;12.95;;;;;;;10.13;70.33;99044.16;4488642;31;20229;-77
2021/12/31 00:08:55;;;;;;;25.85;12.85;;;;;;;10.12;70.32;99050.38;4502912;31;20119;-76
2021/12/31 00:11:20;;;;;;;24.87;13.00;;;;;;;10.11;70.37;99053.91;4488669;31;20161;-76
2021/12/31 00:13:46;;;;;;;24.85;12.52;;;;;;;10.13;70.44;99056.50;4502726;31;20100;-76
2021/12/31 00:16:11;;;;;;;26.92;12.98;;;;;;;9.92;71.59;99055.72;4503244;31;20076;-76
2021/12/31 00:18:36;;;;;;;24.85;12.52;;;;;;;9.97;71.34;99057.22;4503157;31;20131;-77
2021/12/31 00:21:03;;;;;;;24.58;12.27;;;;;;;10.05;71.12;99059.50;4503288;31;20076;-77
2021/12/31 00:23:29;;;;;;;25.37;12.90;;;;;;;9.98;71.51;99047.53;4503289;31;20447;-77
2021/12/31 00:25:55;;;;;;;25.37;12.35;;;;;;;10.10;71.08;99060.12;4503062;31;20088;-77
2021/12/31 00:28:20;;;;;;;24.70;12.93;;;;;;;10.10;70.92;99054.88;4503162;31;20127;-76
2021/12/31 00:30:51;;;;;;;27.67;14.32;;;;;;;10.15;70.91;99052.00;4502770;31;20084;-76
2021/12/31 00:33:17;;;;;;;25.08;12.00;;;;;;;10.21;70.67;99042.00;4502792;31;20131;-77
2021/12/31 00:35:43;;;;;;;24.90;12.32;;;;;;;10.24;70.54;99044.50;4502817;31;20133;-76
2021/12/31 00:38:08;;;;;;;23.33;12.05;;;;;;;10.24;70.52;99033.97;4502638;31;20084;-77
2021/12/31 00:40:33;;;;;;;25.62;12.32;;;;;;;10.27;70.46;99040.00;4488310;31;20108;-76
2021/12/31 00:42:59;;;;;;;25.12;14.02;;;;;;;10.34;70.38;99057.25;4502597;31;20114;-76
2021/12/31 00:45:25;;;;;;;25.80;14.63;;;;;;;10.34;70.22;99052.84;4502887;31;20092;-77
2021/12/31 00:47:51;;;;;;;35.05;18.27;;;;;;;10.31;69.93;99050.34;4488724;31;20088;-77
2021/12/31 00:50:16;;;;;;;32.67;17.60;;;;;;;10.35;69.19;99057.19;4502893;31;20143;-77
2021/12/31 00:52:42;;;;;;;33.15;18.08;;;;;;;10.28;69.24;99060.16;4502816;31;20436;-77
2021/12/31 00:55:09;;;;;;;30.50;16.62;;;;;;;10.25;69.03;99058.50;4488597;31;20096;-76
2021/12/31 00:57:35;;;;;;;30.30;16.33;;;;;;;10.25;68.96;99053.25;4502753;31;20088;-77
2021/12/31 01:00:01;;;;;;;28.50;15.10;;;;;;;10.14;69.47;99064.31;4475486;31;20072;-76
2021/12/31 01:02:28;;;;;;;28.42;15.23;;;;;;;10.21;69.38;99062.22;4488186;31;20185;-76
2021/12/31 01:04:54;;;;;;;29.48;14.57;;;;;;;10.19;69.58;99069.34;4502928;31;20122;-76
2021/12/31 01:07:19;;;;;;;29.08;15.88;;;;;;;10.23;69.65;99063.00;4502602;31;20080;-76
2021/12/31 01:09:45;;;;;;;27.05;14.65;;;;;;;10.29;69.36;99064.47;4488112;31;20106;-76
2021/12/31 01:12:13;;;;;;;27.95;15.23;;;;;;;10.23;69.84;99069.09;4502525;31;20148;-76
2021/12/31 01:15:01;;;;;;;28.90;15.27;;;;;;;10.13;70.26;99074.91;4500686;31;20147;-76
2021/12/31 01:20:12;;;;;;;86.22;20.02;;;;;;;10.28;69.08;99073.31;4502247;31;20136;-76
2021/12/31 01:22:38;;;;;;;35.57;19.43;;;;;;;10.10;68.91;99077.69;4487999;31;20406;-76
2021/12/31 01:25:05;;;;;;;35.53;19.70;;;;;;;10.13;68.86;99082.81;4487816;31;20565;-76
2021/12/31 01:27:31;;;;;;;33.38;18.25;;;;;;;10.10;68.81;99082.94;4502153;31;20096;-76
2021/12/31 01:29:56;;;;;;;31.30;16.30;;;;;;;10.11;68.92;99071.50;4487746;31;20132;-77
2021/12/31 01:32:22;;;;;;;26.70;14.98;;;;;;;10.01;69.74;99074.56;4502077;31;20088;-76
2021/12/31 01:34:48;;;;;;;28.55;14.63;;;;;;;10.08;69.91;99076.91;4502015;31;20390;-76
2021/12/31 01:37:13;;;;;;;28.67;15.70;;;;;;;10.12;70.07;99065.28;4501985;31;20088;-77
2021/12/31 01:39:39;;;;;;;28.30;14.82;;;;;;;10.17;70.18;99073.84;4487701;31;20076;-77
2021/12/31 01:42:08;;;;;;;26.58;13.77;;;;;;;10.12;70.70;99076.69;4501879;31;20088;-76
2021/12/31 01:44:37;;;;;;;28.08;15.50;;;;;;;10.10;70.91;99075.94;4487586;31;20150;-76
2021/12/31 01:47:08;;;;;;;23.62;12.52;;;;;;;10.21;70.19;99070.97;4488135;31;20104;-76
2021/12/31 01:49:36;;;;;;;21.83;10.88;;;;;;;10.33;69.88;99076.59;4501828;31;20080;-76
2021/12/31 01:52:02;;;;;;;34.20;17.35;;;;;;;10.39;71.36;99071.91;4488122;31;20218;-76
2021/12/31 01:54:29;;;;;;;34.22;19.50;;;;;;;10.43;70.63;99065.56;4487661;31;20115;-77
2021/12/31 01:56:55;;;;;;;56.50;20.90;;;;;;;10.40;69.81;99070.13;4502011;31;20103;-76
2021/12/31 01:59:21;;;;;;;40.47;19.77;;;;;;;10.38;69.01;99078.09;4502001;31;20125;-77
2021/12/31 02:01:46;;;;;;;33.60;17.58;;;;;;;10.30;68.90;99074.97;4487478;31;20126;-77
2021/12/31 02:04:12;;;;;;;25.67;13.07;;;;;;;10.20;69.00;99065.81;4487276;31;20148;-76
2021/12/31 02:06:37;;;;;;;29.55;15.60;;;;;;;10.23;70.40;99076.16;4501396;31;20140;-76
2021/12/31 02:09:05;;;;;;;34.92;18.55;;;;;;;10.32;70.18;99073.13;4487218;31;20367;-76
2021/12/31 02:11:30;;;;;;;30.95;17.33;;;;;;;10.27;69.62;99077.72;4487190;31;20165;-76
2021/12/31 02:13:56;;;;;;;22.58;11.90;;;;;;;10.21;69.78;99070.13;4501192;31;20092;-77
2021/12/31 02:16:22;;;;;;;19.75;9.77;;;;;;;10.05;71.55;99070.00;4487182;31;20114;-76
2021/12/31 02:18:48;;;;;;;29.30;15.07;;;;;;;10.22;72.40;99066.56;4487264;31;20132;-76
2021/12/31 02:21:14;;;;;;;33.13;17.42;;;;;;;10.35;71.46;99057.19;4488269;31;20104;-77
2021/12/31 02:23:45;;;;;;;24.90;12.10;;;;;;;10.27;70.91;99064.56;4503960;31;20159;-76
2021/12/31 02:26:11;;;;;;;22.08;11.05;;;;;;;10.39;70.80;99048.19;4503970;31;20075;-76
2021/12/31 02:28:37;;;;;;;27.20;14.55;;;;;;;10.40;71.66;99047.25;4489570;31;20195;-76
2021/12/31 02:31:03;;;;;;;22.13;10.43;;;;;;;10.41;71.23;99051.59;4503610;31;20470;-76
2021/12/31 02:33:32;;;;;;;17.62;8.63;;;;;;;10.49;72.05;99047.72;4503540;31;20096;-76
2021/12/31 02:36:02;;;;;;;16.95;8.25;;;;;;;10.39;74.00;99047.31;4503572;31;20110;-76
2021/12/31 02:38:28;;;;;;;17.33;8.55;;;;;;;10.57;74.58;99046.41;4489110;31;20092;-76
2021/12/31 02:40:54;;;;;;;30.42;17.33;;;;;;;10.65;73.88;99045.19;4475973;31;20443;-76
2021/12/31 02:43:19;;;;;;;26.52;15.13;;;;;;;10.60;71.37;99045.41;4503483;31;20141;-76
2021/12/31 02:45:45;;;;;;;18.48;9.57;;;;;;;10.56;70.22;99043.84;4476030;31;20091;-76
2021/12/31 02:48:11;;;;;;;29.55;16.02;;;;;;;10.46;73.19;99038.19;4503570;31;20076;-76
2021/12/31 02:50:41;;;;;;;22.52;11.20;;;;;;;10.52;72.39;99043.16;4503473;31;20420;-76
2021/12/31 02:53:07;;;;;;;29.05;15.73;;;;;;;10.28;73.12;99045.22;4482522;31;20169;-76
2021/12/31 02:55:35;;;;;;;28.45;15.68;;;;;;;10.43;70.91;99041.84;4479055;31;20083;-77
2021/12/31 02:58:01;;;;;;;27.05;14.13;;;;;;;10.28;70.30;99050.47;4463641;32;20452;-78
2021/12/31 03:00:27;;;;;;;21.70;10.68;;;;;;;10.26;70.93;99057.59;4486365;32;20081;-79
2021/12/31 03:02:53;;;;;;;22.05;11.65;;;;;;;10.30;71.53;99046.00;4485708;32;20131;-76
2021/12/31 03:05:19;;;;;;;20.02;9.45;;;;;;;10.46;72.21;99043.47;4486099;32;20102;-77
2021/12/31 03:07:46;;;;;;;35.72;18.45;;;;;;;10.39;72.57;99044.69;4471657;32;20115;-76
2021/12/31 03:10:14;;;;;;;45.22;19.77;;;;;;;10.49;70.92;99050.34;4471806;32;20120;-77
2021/12/31 03:12:41;;;;;;;58.97;21.70;;;;;;;10.35;69.54;99048.41;4471744;32;20108;-76
2021/12/31 03:15:08;;;;;;;74.45;21.30;;;;;;;10.32;68.84;99049.44;4486417;32;20084;-83
2021/12/31 03:17:34;;;;;;;32.92;17.75;;;;;;;10.04;68.61;99055.13;4487595;32;20083;-77
2021/12/31 03:20:10;;;;;;;23.35;12.20;;;;;;;9.74;69.99;99058.31;4473303;32;20510;-76
2021/12/31 03:22:36;;;;;;;22.70;10.77;;;;;;;9.53;73.76;99047.00;4487631;32;20080;-77
2021/12/31 03:25:01;;;;;;;21.60;11.18;;;;;;;9.81;74.74;99041.31;4487375;32;20112;-77
2021/12/31 03:27:27;;;;;;;22.17;11.38;;;;;;;10.02;73.79;99039.44;4487411;32;20096;-77
2021/12/31 03:29:52;;;;;;;19.02;8.98;;;;;;;9.83;76.62;99046.47;4487323;32;20440;-77
2021/12/31 03:32:18;;;;;;;17.20;8.45;;;;;;;10.15;76.32;99044.09;4487348;32;20415;-77
2021/12/31 03:34:43;;;;;;;16.60;8.27;;;;;;;10.02;77.28;99044.72;4487305;32;20107;-77
2021/12/31 03:37:08;;;;;;;18.17;8.75;;;;;;;10.00;78.09;99049.16;4487271;32;20071;-77
2021/12/31 03:39:34;;;;;;;15.68;8.32;;;;;;;9.72;80.02;99040.91;4487203;32;20092;-77
2021/12/31 03:41:59;;;;;;;18.37;7.97;;;;;;;10.02;79.20;99043.84;4487273;32;20076;-77
2021/12/31 03:44:24;;;;;;;15.32;7.87;;;;;;;10.07;79.59;99033.94;4487241;32;20120;-77
2021/12/31 03:46:50;;;;;;;17.80;7.53;;;;;;;10.38;77.82;99021.94;4473066;32;20076;-77
2021/12/31 03:49:15;;;;;;;20.15;7.75;;;;;;;10.52;77.27;99027.34;4487265;32;20088;-77
2021/12/31 03:51:41;;;;;;;15.60;7.15;;;;;;;10.48;77.95;99038.13;4472892;32;20092;-77
2021/12/31 03:54:06;;;;;;;18.05;8.80;;;;;;;10.29;79.88;99025.00;4487123;32;20128;-77
2021/12/31 03:56:33;;;;;;;15.70;7.32;;;;;;;10.20;81.07;99024.53;4487198;32;20072;-77
2021/12/31 03:59:01;;;;;;;16.52;7.30;;;;;;;10.52;79.19;99031.78;4473389;32;20770;-77
2021/12/31 04:01:27;;;;;;;15.27;6.70;;;;;;;10.53;79.66;99036.12;4487533;32;20173;-77
2021/12/31 04:03:54;;;;;;;16.90;7.75;;;;;;;10.55;80.08;99037.75;4487406;32;20473;-77
2021/12/31 04:06:21;;;;;;;16.62;8.00;;;;;;;10.55;79.97;99034.25;4473223;32;20084;-77
2021/12/31 04:08:47;;;;;;;14.32;6.87;;;;;;;10.32;81.50;99022.25;4487521;32;20088;-77
2021/12/31 04:11:13;;;;;;;14.55;7.00;;;;;;;10.35;82.29;99022.06;4487522;32;20119;-77
2021/12/31 04:13:39;;;;;;;19.17;9.25;;;;;;;10.61;81.28;99026.03;4472885;32;20124;-77
2021/12/31 04:16:05;;;;;;;17.00;8.57;;;;;;;10.66;80.20;99017.91;4473268;32;20535;-77
2021/12/31 04:18:30;;;;;;;19.80;9.77;;;;;;;10.87;79.35;99031.75;4487320;32;20080;-77
2021/12/31 04:20:57;;;;;;;15.45;7.75;;;;;;;10.86;78.21;99019.53;4487456;32;20084;-77
2021/12/31 04:23:30;;;;;;;14.15;6.80;;;;;;;10.81;79.80;99023.22;4487374;32;20447;-77
2021/12/31 04:25:57;;;;;;;14.35;7.30;;;;;;;10.78;80.25;99019.91;4487389;32;20080;-77
2021/12/31 04:28:23;;;;;;;20.42;9.90;;;;;;;10.93;79.82;99013.84;4472973;32;20156;-77
2021/12/31 04:30:48;;;;;;;18.27;9.18;;;;;;;11.04;77.93;99012.41;4487316;32;20145;-77
2021/12/31 04:33:14;;;;;;;22.10;10.93;;;;;;;11.04;75.54;99017.69;4487188;32;20096;-77
2021/12/31 04:35:39;;;;;;;21.62;11.23;;;;;;;10.91;74.48;99020.13;4487192;32;20115;-77
2021/12/31 04:38:05;;;;;;;18.50;9.88;;;;;;;10.84;73.85;99019.59;4473025;32;20093;-77
2021/12/31 04:40:30;;;;;;;17.25;7.97;;;;;;;10.88;73.21;99026.41;4487078;32;20450;-77
2021/12/31 04:42:56;;;;;;;17.30;8.88;;;;;;;10.78;74.02;99023.41;4472652;32;20068;-77
2021/12/31 04:45:21;;;;;;;17.17;8.13;;;;;;;10.58;75.14;99021.75;4486821;32;20098;-77
2021/12/31 04:47:46;;;;;;;16.40;7.32;;;;;;;10.77;75.86;99019.03;4487037;32;20127;-77
2021/12/31 04:50:12;;;;;;;16.10;7.20;;;;;;;10.77;77.71;99026.09;4487211;32;20145;-77
2021/12/31 04:52:39;;;;;;;14.63;6.45;;;;;;;10.71;79.18;99022.00;4472809;32;20403;-77
2021/12/31 04:55:05;;;;;;;18.43;9.20;;;;;;;10.85;80.39;99029.19;4472851;32;20092;-77
2021/12/31 04:57:31;;;;;;;16.65;8.23;;;;;;;10.96;79.00;99026.00;4487130;32;20088;-77
2021/12/31 04:59:56;;;;;;;18.33;9.30;;;;;;;10.99;78.41;99031.97;4487012;32;20383;-77
2021/12/31 05:02:22;;;;;;;16.98;8.63;;;;;;;11.00;77.05;99035.44;4459601;32;20088;-77
2021/12/31 05:04:47;;;;;;;18.02;8.38;;;;;;;11.01;75.91;99030.09;4486562;32;20387;-77
2021/12/31 05:07:13;;;;;;;18.77;9.25;;;;;;;10.96;76.24;99034.75;4486636;32;20092;-77
2021/12/31 05:09:38;;;;;;;16.98;7.70;;;;;;;11.06;76.13;99040.41;4486680;32;20081;-77
2021/12/31 05:12:05;;;;;;;20.67;10.50;;;;;;;11.05;76.22;99041.34;4486598;32;20111;-77
2021/12/31 05:14:31;;;;;;;19.58;9.95;;;;;;;11.00;75.46;99036.28;4472088;32;20451;-77
2021/12/31 05:16:58;;;;;;;19.92;10.32;;;;;;;10.97;74.36;99028.56;4472173;32;20119;-78
2021/12/31 05:19:23;;;;;;;16.77;8.23;;;;;;;10.93;73.64;99041.97;4472418;32;20127;-77
2021/12/31 05:21:49;;;;;;;16.42;7.87;;;;;;;10.85;74.50;99026.56;4472263;32;20080;-77
2021/12/31 05:24:16;;;;;;;9.02;3.42;;;;;;;10.62;78.16;99025.09;4486345;32;20182;-77
2021/12/31 05:26:41;;;;;;;9.98;3.47;;;;;;;10.84;84.41;99027.50;4486454;32;20538;-77
2021/12/31 05:29:07;;;;;;;10.30;3.92;;;;;;;10.94;85.82;99026.09;4486440;32;20163;-77
2021/12/31 05:31:32;;;;;;;10.85;3.97;;;;;;;11.23;83.72;99023.69;4486252;32;20476;-77
2021/12/31 05:33:58;;;;;;;9.55;3.30;;;;;;;11.49;81.55;99021.44;4486152;32;20080;-77
2021/12/31 05:36:23;;;;;;;11.25;4.05;;;;;;;11.46;82.97;99017.19;4485961;32;20131;-77
2021/12/31 05:38:48;;;;;;;9.98;3.45;;;;;;;11.80;81.38;99010.03;4486250;32;20081;-77
2021/12/31 05:41:14;;;;;;;7.78;2.58;;;;;;;11.80;80.19;99015.28;4486187;32;20103;-77
2021/12/31 05:43:39;;;;;;;7.90;2.37;;;;;;;11.86;79.82;99016.75;4486098;32;20077;-77
2021/12/31 05:46:05;;;;;;;9.55;3.22;;;;;;;11.76;81.16;99017.28;4486130;32;20084;-77
2021/12/31 05:48:32;;;;;;;9.18;3.58;;;;;;;11.86;79.60;99033.47;4486041;32;20108;-77
2021/12/31 05:50:57;;;;;;;9.90;3.62;;;;;;;11.96;78.73;99028.53;4486040;32;20156;-77
2021/12/31 05:53:23;;;;;;;8.70;3.10;;;;;;;11.83;79.01;99023.06;4485956;32;20099;-77
2021/12/31 05:55:48;;;;;;;8.60;2.92;;;;;;;12.11;77.26;99029.44;4486553;32;20111;-77
2021/12/31 05:58:14;;;;;;;8.95;3.17;;;;;;;11.98;78.10;99031.94;4488165;32;20108;-77
2021/12/31 06:00:40;;;;;;;8.73;2.67;;;;;;;11.89;78.61;99024.50;4488062;32;20359;-77
2021/12/31 06:03:05;;;;;;;6.90;2.50;;;;;;;12.16;77.43;99037.97;4487977;32;20439;-77
2021/12/31 06:05:30;;;;;;;9.07;2.90;;;;;;;12.21;76.26;99022.72;4488067;32;20080;-77
2021/12/31 06:07:57;;;;;;;7.95;2.50;;;;;;;12.27;76.21;99034.72;4473798;32;20104;-77
2021/12/31 06:10:26;;;;;;;7.40;2.40;;;;;;;12.09;77.04;99039.25;4488045;32;20080;-77
2021/12/31 06:12:56;;;;;;;9.75;2.47;;;;;;;12.32;75.76;99028.25;4473647;32;20085;-77
2021/12/31 06:15:22;;;;;;;7.55;2.58;;;;;;;12.28;75.65;99025.84;4487871;32;20096;-77
2021/12/31 06:17:49;;;;;;;7.00;2.40;;;;;;;12.31;75.64;99030.97;4487976;32;20118;-77
2021/12/31 06:20:15;;;;;;;6.87;2.37;;;;;;;12.48;74.61;99035.28;4487762;32;20080;-77
2021/12/31 06:22:40;;;;;;;6.85;2.15;;;;;;;12.43;74.28;99037.31;4473616;32;20119;-77
2021/12/31 06:25:06;;;;;;;7.15;2.42;;;;;;;12.26;75.57;99036.50;4487774;32;20080;-77
2021/12/31 06:27:31;;;;;;;6.93;2.33;;;;;;;12.32;75.34;99044.09;4473659;32;20100;-78
2021/12/31 06:29:57;;;;;;;9.77;3.42;;;;;;;12.38;74.74;99059.56;4487940;32;20120;-78
2021/12/31 06:32:22;;;;;;;8.73;3.15;;;;;;;12.45;74.06;99056.56;4487845;32;20425;-77
2021/12/31 06:34:48;;;;;;;8.52;2.83;;;;;;;12.69;72.45;99057.78;4473547;32;20126;-78
2021/12/31 06:37:13;;;;;;;9.38;3.12;;;;;;;12.67;72.08;99057.03;4487844;32;20107;-78
2021/12/31 06:39:41;;;;;;;9.05;3.37;;;;;;;12.48;73.28;99066.97;4487846;32;20084;-77
2021/12/31 06:42:07;;;;;;;15.13;7.62;;;;;;;12.54;72.46;99075.38;4473452;32;20116;-77
2021/12/31 06:44:34;;;;;;;11.93;5.15;;;;;;;12.45;70.74;99075.06;4487804;32;20088;-77
2021/12/31 06:46:59;;;;;;;13.02;5.18;;;;;;;12.17;71.83;99085.41;4473867;32;20100;-76
2021/12/31 06:49:25;;;;;;;7.45;2.50;;;;;;;12.40;71.51;99083.28;4488062;32;20076;-76
2021/12/31 06:51:50;;;;;;;10.30;4.28;;;;;;;12.26;73.20;99077.91;4487924;32;20099;-76
2021/12/31 06:54:16;;;;;;;9.88;3.65;;;;;;;12.38;72.05;99072.78;4487869;32;20092;-77
2021/12/31 06:56:41;;;;;;;12.85;5.57;;;;;;;12.46;72.22;99069.72;4487988;32;20081;-77
2021/12/31 06:59:07;;;;;;;9.68;2.60;;;;;;;12.38;71.71;99090.41;4487877;32;20437;-77
2021/12/31 07:01:32;;;;;;;9.30;2.95;;;;;;;12.38;71.97;99088.63;4487906;32;20076;-77
2021/12/31 07:03:57;;;;;;;6.57;2.10;;;;;;;12.43;71.46;99082.25;4487817;32;20135;-77
2021/12/31 07:06:23;;;;;;;7.03;2.05;;;;;;;12.45;71.51;99093.56;4487448;32;20404;-77
2021/12/31 07:08:48;;;;;;;6.25;1.90;;;;;;;12.44;71.28;99086.56;4487913;32;20099;-77
2021/12/31 07:11:16;;;;;;;9.52;2.47;;;;;;;12.52;70.99;99094.94;4487790;32;20071;-77
2021/12/31 07:13:41;;;;;;;6.60;2.30;;;;;;;12.54;71.17;99093.87;4487657;32;20100;-77
2021/12/31 07:16:07;;;;;;;6.95;2.25;;;;;;;12.59;71.10;99091.84;4487866;32;20123;-77
2021/12/31 07:18:32;;;;;;;7.68;2.30;;;;;;;12.88;69.78;99104.28;4487710;32;20129;-77
2021/12/31 07:20:57;;;;;;;6.78;2.30;;;;;;;13.03;69.16;99099.88;4487492;32;20072;-77
2021/12/31 07:23:23;;;;;;;7.18;2.03;;;;;;;12.74;70.24;99100.66;4487439;32;20118;-77
2021/12/31 07:25:49;;;;;;;8.05;2.60;;;;;;;12.90;69.69;99105.91;4473371;32;20092;-77
2021/12/31 07:28:15;;;;;;;7.95;2.50;;;;;;;13.05;68.85;99108.56;4487487;32;20080;-77
2021/12/31 07:30:41;;;;;;;6.15;1.95;;;;;;;13.23;68.06;99115.41;4487348;32;20097;-77
2021/12/31 07:33:14;;;;;;;7.60;2.40;;;;;;;12.86;69.23;99124.66;4487347;32;20104;-77
2021/12/31 07:35:40;;;;;;;6.75;2.25;;;;;;;12.90;69.09;99121.78;4487463;32;20108;-77
2021/12/31 07:38:05;;;;;;;6.70;2.05;;;;;;;13.24;68.21;99122.41;4473180;32;20234;-77
2021/12/31 07:40:41;;;;;;;8.88;2.47;;;;;;;13.09;68.65;99125.97;4487392;32;20396;-77
2021/12/31 07:43:08;;;;;;;7.10;2.60;;;;;;;13.09;68.64;99136.53;4474532;32;20119;-77
2021/12/31 07:45:34;;;;;;;7.70;2.83;;;;;;;12.70;69.65;99130.84;4487385;32;20084;-77
2021/12/31 07:48:00;;;;;;;8.75;2.60;;;;;;;12.76;69.45;99130.50;4487333;32;20081;-77
2021/12/31 07:50:26;;;;;;;8.52;2.87;;;;;;;12.96;68.91;99125.81;4473159;32;20486;-77
2021/12/31 07:52:52;;;;;;;7.75;2.50;;;;;;;13.14;68.15;99126.53;4487371;32;20100;-77
2021/12/31 07:55:17;;;;;;;6.55;2.17;;;;;;;12.97;68.44;99133.66;4487228;32;20111;-77
2021/12/31 07:57:42;;;;;;;7.90;2.20;;;;;;;13.15;67.84;99131.75;4487117;32;20076;-77
2021/12/31 08:00:08;;;;;;;8.70;2.67;;;;;;;13.14;67.61;99130.03;4487133;32;20375;-78
2021/12/31 08:02:34;;;;;;;8.50;2.50;;;;;;;12.98;68.00;99127.47;4487264;32;20100;-77
2021/12/31 08:04:59;;;;;;;9.40;3.10;;;;;;;12.98;68.10;99135.38;4487277;32;20085;-77
2021/12/31 08:07:25;;;;;;;8.63;2.85;;;;;;;13.17;67.75;99127.22;4472776;32;20084;-77
2021/12/31 08:09:50;;;;;;;9.25;3.45;;;;;;;13.18;67.62;99138.66;4487246;32;20084;-77
2021/12/31 08:12:15;;;;;;;10.40;3.40;;;;;;;13.07;68.03;99133.97;4487154;32;20100;-77
2021/12/31 08:14:41;;;;;;;9.80;3.55;;;;;;;13.08;67.96;99137.50;4486943;32;20453;-77
2021/12/31 08:17:06;;;;;;;8.93;3.05;;;;;;;13.06;68.09;99134.94;4487122;32;20107;-77
2021/12/31 08:19:32;;;;;;;9.75;3.78;;;;;;;13.08;68.01;99140.97;4486104;32;20073;-77
2021/12/31 08:21:57;;;;;;;8.82;3.00;;;;;;;13.22;67.34;99140.16;4487160;32;20127;-77
2021/12/31 08:24:23;;;;;;;9.68;2.95;;;;;;;13.06;68.06;99129.66;4472770;32;20475;-77
2021/12/31 08:26:48;;;;;;;7.50;2.30;;;;;;;12.92;68.64;99129.59;4472744;32;20110;-78
2021/12/31 08:29:15;;;;;;;8.88;2.58;;;;;;;13.07;67.81;99131.34;4487104;32;20099;-77
2021/12/31 08:31:41;;;;;;;5.80;2.20;;;;;;;13.37;67.05;99125.19;4487034;32;20092;-77
2021/12/31 08:34:10;;;;;;;6.53;1.75;;;;;;;13.26;67.28;99133.75;4459625;32;20122;-77
2021/12/31 08:36:36;;;;;;;4.70;1.33;;;;;;;13.20;67.58;99136.75;4487023;32;20076;-77
2021/12/31 08:39:04;;;;;;;5.20;1.40;;;;;;;13.25;66.37;99142.63;4486869;32;20095;-78
2021/12/31 08:41:30;;;;;;;3.90;1.40;;;;;;;13.44;66.32;99136.25;4459702;32;20296;-78
2021/12/31 08:43:55;;;;;;;2.85;1.15;;;;;;;13.51;66.14;99137.59;4486942;32;20364;-77
2021/12/31 08:46:21;;;;;;;2.78;1.10;;;;;;;13.68;64.92;99136.56;4486910;32;20340;-78
2021/12/31 08:48:46;;;;;;;4.97;1.40;;;;;;;13.60;64.98;99141.44;4472596;32;20107;-78
2021/12/31 08:51:12;;;;;;;5.07;1.25;;;;;;;13.65;64.93;99126.97;4486807;32;20505;-78
2021/12/31 08:53:37;;;;;;;3.90;1.30;;;;;;;13.65;64.96;99131.44;4472680;32;20244;-89
2021/12/31 08:56:03;;;;;;;4.30;1.25;;;;;;;13.78;64.51;99148.28;4472598;32;20136;-85
2021/12/31 08:58:28;;;;;;;3.37;1.42;;;;;;;13.98;63.85;99136.41;4472379;32;20111;-87
2021/12/31 09:00:53;;;;;;;4.32;1.10;;;;;;;14.01;63.34;99138.88;4471917;32;20100;-83
2021/12/31 09:03:19;;;;;;;3.85;1.20;;;;;;;14.01;63.36;99133.59;4486177;32;20411;-82
2021/12/31 09:05:44;;;;;;;4.93;1.23;;;;;;;14.12;63.23;99128.47;4490147;31;20428;-82
2021/12/31 09:08:10;;;;;;;4.10;1.10;;;;;;;14.38;62.37;99133.03;4486410;32;20073;-82
2021/12/31 09:10:35;;;;;;;4.12;1.10;;;;;;;14.38;62.24;99117.97;4485940;32;20107;-85
2021/12/31 09:13:01;;;;;;;3.35;1.10;;;;;;;14.32;62.08;99119.22;4485758;32;20080;-84
2021/12/31 09:15:26;;;;;;;4.60;1.17;;;;;;;14.46;61.67;99128.94;4471372;32;20110;-85
2021/12/31 09:17:54;;;;;;;4.43;1.30;;;;;;;14.23;62.37;99124.28;4486214;32;20118;-84
2021/12/31 09:20:20;;;;;;;4.62;1.00;;;;;;;14.35;61.92;99123.47;4472039;31;20164;-83
2021/12/31 09:22:45;;;;;;;3.40;1.10;;;;;;;14.40;61.97;99129.34;4501017;31;20118;-84
2021/12/31 09:25:11;;;;;;;4.35;1.20;;;;;;;14.53;61.47;99122.28;4501229;31;20345;-85
2021/12/31 09:27:36;;;;;;;2.97;1.10;;;;;;;14.60;61.08;99135.16;4487213;31;20092;-86
2021/12/31 09:30:02;;;;;;;3.75;1.02;;;;;;;14.69;61.24;99135.41;4499780;31;20116;-90
2021/12/31 09:32:27;;;;;;;2.83;0.95;;;;;;;14.39;61.72;99132.94;4482225;32;20120;-88
2021/12/31 09:34:53;;;;;;;4.03;1.10;;;;;;;14.54;61.21;99118.69;4487566;31;20466;-87
2021/12/31 09:37:19;;;;;;;2.65;0.80;;;;;;;14.43;61.47;99115.91;4487669;31;20068;-89
2021/12/31 09:39:44;;;;;;;2.95;0.90;;;;;;;14.54;61.11;99136.38;4488561;31;20100;-88
2021/12/31 09:42:10;;;;;;;2.78;1.00;;;;;;;14.43;61.58;99113.25;4486852;32;20122;-89
2021/12/31 09:44:36;;;;;;;2.05;0.80;;;;;;;14.35;61.61;99102.25;4487969;32;20115;-83
2021/12/31 09:47:07;;;;;;;3.22;0.80;;;;;;;14.19;62.31;99106.88;4480663;32;20084;-85
2021/12/31 09:49:34;;;;;;;2.55;0.88;;;;;;;14.46;61.95;99107.72;4487936;31;20122;-89
2021/12/31 09:52:01;;;;;;;4.37;0.87;;;;;;;14.55;61.57;99103.63;4496814;31;20122;-89
2021/12/31 09:54:26;;;;;;;1.58;0.60;;;;;;;14.28;62.25;99091.22;4498696;31;20088;-91
2021/12/31 09:56:52;;;;;;;4.30;1.00;;;;;;;14.40;62.27;99100.19;4502399;31;20148;-88
2021/12/31 09:59:17;;;;;;;2.42;0.80;;;;;;;14.40;62.39;99110.78;4501358;31;20124;-92
2021/12/31 10:01:47;;;;;;;2.78;0.88;;;;;;;14.74;61.30;99105.94;4489295;31;20104;-91
2021/12/31 10:04:13;;;;;;;1.80;0.70;;;;;;;14.86;60.99;99102.47;4489275;31;20367;-91
2021/12/31 10:07:11;;;;;;;4.78;1.10;;;;;;;14.82;60.85;99110.75;4503577;31;20094;-92
2021/12/31 10:09:40;;;;;;;3.08;1.02;;;;;;;14.70;61.07;99117.72;4503223;31;20148;-93
2021/12/31 10:12:06;;;;;;;2.62;1.00;;;;;;;14.84;60.78;99109.69;4489380;31;20095;-93
2021/12/31 10:14:40;;;;;;;2.25;1.00;;;;;;;14.94;60.09;99115.22;4503414;31;20108;-93
2021/12/31 10:17:06;;;;;;;4.28;1.00;;;;;;;14.94;60.14;99117.87;4503255;31;20495;-93
2021/12/31 10:19:32;;;;;;;3.33;1.00;;;;;;;15.09;59.53;99111.53;4503300;31;20108;-94
2021/12/31 10:21:57;;;;;;;3.17;0.90;;;;;;;15.23;58.44;99109.72;4475937;31;20132;-94
2021/12/31 10:24:26;;;;;;;2.72;1.05;;;;;;;15.14;58.99;99112.06;4489301;31;20104;-94
2021/12/31 10:26:59;;;;;;;3.58;0.95;;;;;;;15.32;58.49;99117.06;4503918;31;20072;-94
2021/12/31 10:29:25;;;;;;;3.00;1.10;;;;;;;15.11;58.54;99114.91;4502904;31;20137;-92
2021/12/31 10:31:52;;;;;;;3.72;1.05;;;;;;;15.05;58.73;99111.84;4503266;31;20160;-94
2021/12/31 10:34:32;;;;;;;3.50;1.08;;;;;;;15.10;58.53;99099.09;4488714;31;20088;-94
2021/12/31 10:37:24;;;;;;;1.62;0.80;;;;;;;15.52;57.53;99105.06;4503205;31;20110;-94
2021/12/31 10:39:56;;;;;;;2.58;1.00;;;;;;;15.39;57.30;99098.91;4503872;31;20168;-93
2021/12/31 10:42:32;;;;;;;3.97;1.10;;;;;;;15.42;57.36;99096.88;4488822;31;20133;-93
2021/12/31 10:45:00;;;;;;;4.22;1.02;;;;;;;15.29;57.41;99094.22;4489297;31;20156;-94
2021/12/31 10:47:34;;;;;;;3.40;1.30;;;;;;;15.41;57.50;99095.16;4489034;31;20431;-94
2021/12/31 10:50:02;;;;;;;4.30;1.33;;;;;;;15.39;57.17;99104.22;4488896;31;20805;-93
2021/12/31 10:52:36;;;;;;;5.35;1.67;;;;;;;15.49;56.90;99094.63;4503409;31;20114;-93
2021/12/31 10:55:15;;;;;;;3.15;1.00;;;;;;;15.55;56.38;99110.16;4473935;32;20081;-95
2021/12/31 10:57:41;;;;;;;3.25;1.20;;;;;;;15.23;56.99;99107.91;4482395;32;20675;-93
2021/12/31 11:00:08;;;;;;;4.75;1.37;;;;;;;15.46;56.33;99102.84;4486155;32;20465;-96
2021/12/31 11:02:34;;;;;;;3.50;1.30;;;;;;;15.42;56.86;99104.00;4490049;31;20104;-94
2021/12/31 11:05:00;;;;;;;4.32;1.25;;;;;;;15.62;56.08;99107.91;4489108;31;20180;-88
2021/12/31 11:07:29;;;;;;;5.45;1.37;;;;;;;15.53;56.52;99104.97;4502851;31;20122;-92
2021/12/31 11:09:56;;;;;;;5.35;1.75;;;;;;;15.63;56.23;99106.97;4488714;31;20108;-92
2021/12/31 11:12:22;;;;;;;3.75;1.40;;;;;;;15.76;55.79;99107.84;4488482;31;20087;-91
2021/12/31 11:14:48;;;;;;;4.10;1.33;;;;;;;15.51;56.49;99103.34;4489311;31;20150;-92
2021/12/31 11:17:13;;;;;;;5.28;1.40;;;;;;;15.47;56.32;99104.53;4504116;31;20144;-93
2021/12/31 11:19:43;;;;;;;4.03;1.30;;;;;;;15.46;56.39;99106.34;4503018;31;20093;-93
2021/12/31 11:22:09;;;;;;;2.75;1.20;;;;;;;15.53;56.17;99098.81;4488781;31;20111;-90
2021/12/31 11:24:37;;;;;;;4.53;1.40;;;;;;;15.52;56.41;99115.69;4488242;31;20114;-90
2021/12/31 11:27:27;;;;;;;4.45;1.37;;;;;;;15.65;56.16;99097.09;4503170;31;20439;-86